createdAt,value
2022-12-25T00:00:37.757Z,100539.59
2022-12-25T00:03:40.294Z,100542.06
2022-12-25T00:06:42.423Z,100538.59
2022-12-25T00:09:44.429Z,100540.38
2022-12-25T00:12:46.664Z,100531.59
2022-12-25T00:15:48.715Z,100537.78
2022-12-25T00:18:53.958Z,100552.59
2022-12-25T00:21:55.987Z,100556.00
2022-12-25T00:24:58.120Z,100551.75
2022-12-25T00:28:00.250Z,100562.25
2022-12-25T00:31:14.038Z,100555.22
2022-12-25T00:34:16.616Z,100554.03
2022-12-25T00:37:18.681Z,100547.62
2022-12-25T00:40:21.744Z,100550.16
2022-12-25T00:43:23.931Z,100544.81
2022-12-25T00:46:26.188Z,100557.91
2022-12-25T00:49:28.379Z,100551.84
2022-12-25T00:52:30.405Z,100564.06
2022-12-25T00:55:32.473Z,100569.34
2022-12-25T00:58:36.047Z,100568.53
2022-12-25T01:01:38.921Z,100570.41
2022-12-25T01:04:41.244Z,100568.63
2022-12-25T01:07:43.308Z,100561.63
2022-12-25T01:10:45.418Z,100568.72
2022-12-25T01:13:47.472Z,100558.28
2022-12-25T01:16:49.769Z,100555.47
2022-12-25T01:19:51.995Z,100556.31
2022-12-25T01:22:54.152Z,100568.41
2022-12-25T01:25:56.221Z,100569.31
2022-12-25T01:28:58.374Z,100566.63
2022-12-25T01:32:00.524Z,100570.91
2022-12-25T01:35:02.643Z,100578.69
2022-12-25T01:38:04.718Z,100584.75
2022-12-25T01:41:07.047Z,100581.12
2022-12-25T01:44:15.002Z,100587.19
2022-12-25T01:47:18.605Z,100584.34
2022-12-25T01:50:21.213Z,100587.78
2022-12-25T01:53:24.652Z,100590.41
2022-12-25T01:56:27.842Z,100596.56
2022-12-25T01:59:30.556Z,100599.31
2022-12-25T02:02:33.208Z,100604.53
2022-12-25T02:05:35.922Z,100595.94
2022-12-25T02:08:38.151Z,100594.31
2022-12-25T02:11:58.406Z,100588.31
2022-12-25T02:15:06.118Z,100591.97
2022-12-25T02:18:37.702Z,100591.34
2022-12-25T02:22:00.099Z,100579.31
2022-12-25T02:25:20.116Z,100590.84
2022-12-25T02:28:28.020Z,100581.31
2022-12-25T02:31:41.362Z,100578.78
2022-12-25T02:34:58.459Z,100571.63
2022-12-25T02:38:14.345Z,100569.59
2022-12-25T02:41:17.517Z,100556.41
2022-12-25T02:44:41.623Z,100558.09
2022-12-25T02:48:02.291Z,100557.34
2022-12-25T02:51:27.168Z,100557.19
2022-12-25T02:54:53.236Z,100556.25
2022-12-25T02:58:17.755Z,100558.84
2022-12-25T03:01:41.355Z,100564.06
2022-12-25T03:05:03.273Z,100557.81
2022-12-25T03:08:08.827Z,100548.97
2022-12-25T03:11:31.336Z,100551.50
2022-12-25T03:14:52.002Z,100554.97
2022-12-25T03:17:57.383Z,100556.72
2022-12-25T03:21:19.069Z,100569.88
2022-12-25T03:24:39.921Z,100577.88
2022-12-25T03:27:44.405Z,100561.09
2022-12-25T03:31:12.628Z,100555.87
2022-12-25T03:34:51.796Z,100551.66
2022-12-25T03:38:31.345Z,100570.91
2022-12-25T03:42:06.456Z,100560.41
2022-12-25T03:45:33.326Z,100565.78
2022-12-25T03:48:58.677Z,100573.81
2022-12-25T03:52:23.117Z,100578.28
2022-12-25T03:55:44.908Z,100579.41
2022-12-25T03:59:19.318Z,100578.84
2022-12-25T04:02:43.729Z,100574.69
2022-12-25T04:06:04.441Z,100575.75
2022-12-25T04:09:24.900Z,100583.75
2022-12-25T04:12:45.576Z,100597.84
2022-12-25T04:16:06.427Z,100594.47
2022-12-25T04:19:28.058Z,100590.91
2022-12-25T04:22:48.727Z,100588.31
2022-12-25T04:26:09.340Z,100590.22
2022-12-25T04:29:29.980Z,100591.16
2022-12-25T04:32:50.493Z,100593.00
2022-12-25T04:36:11.504Z,100597.22
2022-12-25T04:39:13.778Z,100589.53
2022-12-25T04:42:16.667Z,100586.28
2022-12-25T04:45:19.417Z,100586.63
2022-12-25T04:48:22.257Z,100585.97
2022-12-25T04:51:25.663Z,100589.75
2022-12-25T04:54:27.756Z,100597.78
2022-12-25T04:57:29.820Z,100605.72
2022-12-25T05:00:32.009Z,100615.44
2022-12-25T05:03:34.675Z,100608.59
2022-12-25T05:06:36.721Z,100598.28
2022-12-25T05:09:41.864Z,100597.53
2022-12-25T05:12:44.139Z,100582.75
2022-12-25T05:15:46.352Z,100574.09
2022-12-25T05:18:50.922Z,100584.59
2022-12-25T05:21:57.771Z,100595.12
2022-12-25T05:24:59.773Z,100600.53
2022-12-25T05:28:01.823Z,100604.06
2022-12-25T05:31:04.095Z,100609.28
2022-12-25T05:34:06.109Z,100599.81
2022-12-25T05:37:08.230Z,100606.06
2022-12-25T05:40:10.866Z,100616.56
2022-12-25T05:43:12.897Z,100619.25
2022-12-25T05:46:15.267Z,100617.50
2022-12-25T05:49:17.396Z,100618.41
2022-12-25T05:52:19.462Z,100615.75
2022-12-25T05:55:21.567Z,100620.84
2022-12-25T05:58:23.681Z,100621.59
2022-12-25T06:01:28.292Z,100612.72
2022-12-25T06:04:30.495Z,100609.94
2022-12-25T06:07:36.411Z,100612.41
2022-12-25T06:10:38.543Z,100619.22
2022-12-25T06:13:40.700Z,100623.44
2022-12-25T06:16:43.429Z,100629.44
2022-12-25T06:19:45.643Z,100625.84
2022-12-25T06:22:47.995Z,100629.16
2022-12-25T06:25:50.066Z,100632.56
2022-12-25T06:28:53.615Z,100623.59
2022-12-25T06:31:57.474Z,100626.13
2022-12-25T06:34:59.664Z,100624.16
2022-12-25T06:38:01.741Z,100641.53
2022-12-25T06:41:10.452Z,100638.22
2022-12-25T06:44:12.581Z,100640.72
2022-12-25T06:47:14.769Z,100638.13
2022-12-25T06:50:16.952Z,100641.31
2022-12-25T06:53:18.990Z,100636.91
2022-12-25T06:56:27.308Z,100641.91
2022-12-25T06:59:29.444Z,100637.31
2022-12-25T07:02:33.173Z,100635.47
2022-12-25T07:05:35.369Z,100636.16
2022-12-25T07:08:37.504Z,100642.09
2022-12-25T07:11:39.590Z,100655.09
2022-12-25T07:14:42.296Z,100656.69
2022-12-25T07:17:44.479Z,100664.31
2022-12-25T07:20:46.531Z,100663.25
2022-12-25T07:23:50.364Z,100670.06
2022-12-25T07:26:52.473Z,100676.84
2022-12-25T07:29:55.021Z,100676.59
2022-12-25T07:32:57.864Z,100677.34
2022-12-25T07:36:00.307Z,100677.19
2022-12-25T07:39:02.553Z,100671.00
2022-12-25T07:42:04.691Z,100681.47
2022-12-25T07:45:08.027Z,100681.34
2022-12-25T07:48:16.290Z,100679.47
2022-12-25T07:51:18.857Z,100675.91
2022-12-25T07:54:21.506Z,100681.84
2022-12-25T07:57:23.502Z,100692.97
2022-12-25T08:00:29.825Z,100691.13
2022-12-25T08:03:33.788Z,100690.78
2022-12-25T08:06:36.281Z,100697.66
2022-12-25T08:09:38.367Z,100702.13
2022-12-25T08:12:40.510Z,100702.88
2022-12-25T08:15:42.606Z,100702.00
2022-12-25T08:18:44.745Z,100711.97
2022-12-25T08:21:46.838Z,100724.47
2022-12-25T08:24:48.908Z,100725.50
2022-12-25T08:27:51.052Z,100725.94
2022-12-25T08:30:53.445Z,100728.94
2022-12-25T08:33:58.411Z,100732.09
2022-12-25T08:37:00.465Z,100733.53
2022-12-25T08:40:02.596Z,100732.56
2022-12-25T08:43:05.117Z,100735.94
2022-12-25T08:46:07.403Z,100737.66
2022-12-25T08:49:09.727Z,100739.44
2022-12-25T08:52:11.845Z,100728.66
2022-12-25T08:55:13.981Z,100730.50
2022-12-25T08:58:16.808Z,100727.28
2022-12-25T09:01:18.949Z,100715.37
2022-12-25T09:04:21.436Z,100712.84
2022-12-25T09:07:23.542Z,100711.25
2022-12-25T09:10:25.822Z,100712.25
2022-12-25T09:13:28.270Z,100718.13
2022-12-25T09:16:30.563Z,100716.28
2022-12-25T09:19:32.755Z,100716.34
2022-12-25T09:22:35.203Z,100720.12
2022-12-25T09:25:37.263Z,100722.50
2022-12-25T09:28:40.820Z,100716.25
2022-12-25T09:31:48.446Z,100717.22
2022-12-25T09:34:51.833Z,100717.22
2022-12-25T09:37:53.890Z,100712.66
2022-12-25T09:41:06.114Z,100717.66
2022-12-25T09:44:18.341Z,100716.34
2022-12-25T09:47:32.108Z,100720.12
2022-12-25T09:50:37.830Z,100708.59
2022-12-25T09:53:46.087Z,100711.87
2022-12-25T09:56:48.484Z,100719.50
2022-12-25T09:59:54.045Z,100723.00
2022-12-25T10:03:29.541Z,100729.00
2022-12-25T10:06:52.473Z,100740.25
2022-12-25T10:09:57.586Z,100728.09
2022-12-25T10:12:59.731Z,100728.72
2022-12-25T10:16:07.930Z,100732.03
2022-12-25T10:19:24.890Z,100726.69
2022-12-25T10:22:52.856Z,100730.31
2022-12-25T10:25:55.598Z,100730.94
2022-12-25T10:29:05.403Z,100735.31
2022-12-25T10:32:10.525Z,100734.97
2022-12-25T10:35:14.557Z,100726.72
2022-12-25T10:38:19.246Z,100725.09
2022-12-25T10:41:28.428Z,100730.03
2022-12-25T10:44:31.149Z,100722.56
2022-12-25T10:47:38.225Z,100725.00
2022-12-25T10:50:43.546Z,100707.59
2022-12-25T10:53:45.703Z,100712.03
2022-12-25T10:57:02.508Z,100696.94
2022-12-25T11:00:05.610Z,100698.88
2022-12-25T11:03:22.303Z,100700.03
2022-12-25T11:06:27.555Z,100694.53
2022-12-25T11:09:29.826Z,100688.66
2022-12-25T11:12:36.746Z,100683.38
2022-12-25T11:15:49.057Z,100678.75
2022-12-25T11:18:54.362Z,100666.38
2022-12-25T11:21:59.783Z,100667.28
2022-12-25T11:25:21.174Z,100666.41
2022-12-25T11:28:24.316Z,100663.72
2022-12-25T11:31:41.267Z,100650.50
2022-12-25T11:34:46.531Z,100652.28
2022-12-25T11:37:53.330Z,100646.91
2022-12-25T11:41:00.730Z,100641.84
2022-12-25T11:44:11.028Z,100644.03
2022-12-25T11:47:40.644Z,100638.91
2022-12-25T11:50:51.563Z,100636.91
2022-12-25T11:54:04.084Z,100636.87
2022-12-25T11:57:07.382Z,100628.66
2022-12-25T12:00:15.685Z,100640.53
2022-12-25T12:03:25.337Z,100633.50
2022-12-25T12:06:30.410Z,100626.72
2022-12-25T12:09:55.098Z,100626.72
2022-12-25T12:13:12.492Z,100621.00
2022-12-25T12:16:14.717Z,100625.62
2022-12-25T12:19:31.169Z,100622.25
2022-12-25T12:22:33.440Z,100626.31
2022-12-25T12:25:41.227Z,100621.28
2022-12-25T12:28:46.287Z,100623.94
2022-12-25T12:31:51.099Z,100619.00
2022-12-25T12:34:53.429Z,100613.87
2022-12-25T12:38:11.986Z,100609.87
2022-12-25T12:41:14.863Z,100608.72
2022-12-25T12:44:18.178Z,100614.88
2022-12-25T12:47:31.470Z,100602.72
2022-12-25T12:50:42.677Z,100587.62
2022-12-25T12:53:44.851Z,100594.28
2022-12-25T12:57:00.477Z,100596.87
2022-12-25T13:00:09.992Z,100597.53
2022-12-25T13:03:34.275Z,100610.13
2022-12-25T13:06:54.588Z,100599.59
2022-12-25T13:09:59.413Z,100599.56
2022-12-25T13:13:30.692Z,100602.13
2022-12-25T13:16:39.197Z,100585.78
2022-12-25T13:19:43.832Z,100583.66
2022-12-25T13:22:52.349Z,100582.47
2022-12-25T13:25:57.306Z,100589.87
2022-12-25T13:28:59.579Z,100586.37
2022-12-25T13:32:05.709Z,100601.28
2022-12-25T13:35:14.480Z,100594.00
2022-12-25T13:38:18.283Z,100583.00
2022-12-25T13:41:44.698Z,100593.31
2022-12-25T13:44:57.682Z,100593.19
2022-12-25T13:48:14.503Z,100610.19
2022-12-25T13:51:16.993Z,100606.00
2022-12-25T13:54:19.538Z,100599.31
2022-12-25T13:57:27.075Z,100595.25
2022-12-25T14:00:33.867Z,100601.53
2022-12-25T14:03:37.819Z,100602.00
2022-12-25T14:06:39.982Z,100603.34
2022-12-25T14:09:42.254Z,100604.38
2022-12-25T14:12:45.164Z,100609.50
2022-12-25T14:15:48.982Z,100603.53
2022-12-25T14:19:02.525Z,100598.31
2022-12-25T14:22:17.675Z,100601.78
2022-12-25T14:25:21.237Z,100605.66
2022-12-25T14:28:32.993Z,100596.47
2022-12-25T14:31:36.138Z,100602.34
2022-12-25T14:34:38.316Z,100597.22
2022-12-25T14:37:42.353Z,100601.97
2022-12-25T14:40:45.734Z,100603.28
2022-12-25T14:43:55.238Z,100609.25
2022-12-25T14:47:15.857Z,100602.63
2022-12-25T14:50:27.583Z,100594.34
2022-12-25T14:53:35.310Z,100604.72
2022-12-25T14:56:38.598Z,100604.34
2022-12-25T14:59:41.466Z,100607.59
2022-12-25T15:02:46.694Z,100603.88
2022-12-25T15:05:59.906Z,100602.69
2022-12-25T15:09:14.369Z,100605.12
2022-12-25T15:12:16.581Z,100597.63
2022-12-25T15:15:18.641Z,100597.47
2022-12-25T15:18:22.882Z,100594.31
2022-12-25T15:21:27.731Z,100609.84
2022-12-25T15:24:29.862Z,100603.28
2022-12-25T15:27:32.108Z,100608.06
2022-12-25T15:30:35.667Z,100603.19
2022-12-25T15:33:43.875Z,100600.72
2022-12-25T15:36:47.261Z,100603.63
2022-12-25T15:39:49.389Z,100601.16
2022-12-25T15:42:51.704Z,100603.28
2022-12-25T15:45:53.832Z,100597.97
2022-12-25T15:48:56.004Z,100591.22
2022-12-25T15:51:58.028Z,100593.03
2022-12-25T15:55:00.094Z,100590.84
2022-12-25T15:58:02.287Z,100594.50
2022-12-25T16:01:04.828Z,100593.44
2022-12-25T16:04:07.073Z,100593.88
2022-12-25T16:07:20.653Z,100593.94
2022-12-25T16:10:22.849Z,100599.22
2022-12-25T16:13:25.012Z,100603.97
2022-12-25T16:16:27.137Z,100597.84
2022-12-25T16:19:29.383Z,100602.97
2022-12-25T16:22:33.096Z,100599.69
2022-12-25T16:25:35.288Z,100605.31
2022-12-25T16:28:37.613Z,100598.47
2022-12-25T16:31:40.496Z,100590.81
2022-12-25T16:34:44.073Z,100594.62
2022-12-25T16:37:46.193Z,100587.22
2022-12-25T16:40:55.661Z,100588.41
2022-12-25T16:43:57.737Z,100585.97
2022-12-25T16:46:59.860Z,100581.41
2022-12-25T16:50:03.889Z,100583.41
2022-12-25T16:53:06.780Z,100583.41
2022-12-25T16:56:14.893Z,100596.16
2022-12-25T16:59:16.953Z,100600.09
2022-12-25T17:02:20.897Z,100602.78
2022-12-25T17:05:24.633Z,100610.22
2022-12-25T17:08:26.696Z,100599.41
2022-12-25T17:11:32.355Z,100604.81
2022-12-25T17:14:35.678Z,100612.16
2022-12-25T17:17:38.101Z,100616.91
2022-12-25T17:20:40.405Z,100612.94
2022-12-25T17:23:45.172Z,100613.75
2022-12-25T17:26:48.135Z,100606.13
2022-12-25T17:29:50.276Z,100604.41
2022-12-25T17:32:52.693Z,100600.31
2022-12-25T17:35:58.639Z,100588.78
2022-12-25T17:39:06.501Z,100565.00
2022-12-25T17:42:09.011Z,100563.44
2022-12-25T17:45:11.881Z,100564.28
2022-12-25T17:48:14.008Z,100569.41
2022-12-25T17:51:19.474Z,100577.25
2022-12-25T17:54:21.681Z,100583.19
2022-12-25T17:57:23.750Z,100584.84
2022-12-25T18:00:26.131Z,100587.84
2022-12-25T18:03:28.350Z,100584.53
2022-12-25T18:06:30.858Z,100590.91
2022-12-25T18:09:32.917Z,100591.00
2022-12-25T18:12:35.167Z,100581.44
2022-12-25T18:15:39.984Z,100579.59
2022-12-25T18:18:49.506Z,100566.31
2022-12-25T18:21:53.923Z,100565.41
2022-12-25T18:24:56.010Z,100568.19
2022-12-25T18:27:58.088Z,100571.88
2022-12-25T18:31:00.449Z,100568.34
2022-12-25T18:34:03.022Z,100571.16
2022-12-25T18:37:05.158Z,100582.06
2022-12-25T18:40:07.941Z,100585.94
2022-12-25T18:43:10.654Z,100588.66
2022-12-25T18:46:12.906Z,100580.91
2022-12-25T18:49:15.080Z,100583.59
2022-12-25T18:52:48.335Z,100574.22
2022-12-25T18:55:40.833Z,100577.84
2022-12-25T18:58:43.876Z,100571.72
2022-12-25T19:01:46.478Z,100562.59
2022-12-25T19:04:48.733Z,100562.22
2022-12-25T19:07:51.083Z,100560.53
2022-12-25T19:10:53.209Z,100560.44
2022-12-25T19:13:56.531Z,100549.78
2022-12-25T19:16:59.161Z,100557.94
2022-12-25T19:20:02.356Z,100555.31
2022-12-25T19:23:04.503Z,100558.22
2022-12-25T19:26:09.149Z,100557.38
2022-12-25T19:29:11.346Z,100554.03
2022-12-25T19:32:13.884Z,100557.66
2022-12-25T19:35:16.361Z,100553.28
2022-12-25T19:38:20.305Z,100559.31
2022-12-25T19:41:23.171Z,100557.31
2022-12-25T19:44:25.855Z,100557.59
2022-12-25T19:47:28.151Z,100551.75
2022-12-25T19:50:32.700Z,100556.03
2022-12-25T19:53:34.780Z,100554.44
2022-12-25T19:56:37.258Z,100544.00
2022-12-25T19:59:39.700Z,100533.38
2022-12-25T20:02:41.916Z,100545.78
2022-12-25T20:05:45.148Z,100540.69
2022-12-25T20:08:49.846Z,100535.53
2022-12-25T20:11:52.059Z,100530.25
2022-12-25T20:14:54.148Z,100524.31
2022-12-25T20:17:56.362Z,100513.16
2022-12-25T20:21:06.392Z,100508.03
2022-12-25T20:24:11.416Z,100504.66
2022-12-25T20:27:13.541Z,100516.19
2022-12-25T20:30:15.973Z,100516.97
2022-12-25T20:33:18.585Z,100521.25
2022-12-25T20:36:21.046Z,100515.19
2022-12-25T20:39:23.520Z,100520.53
2022-12-25T20:42:25.843Z,100519.69
2022-12-25T20:45:28.439Z,100525.09
2022-12-25T20:48:30.825Z,100515.41
2022-12-25T20:51:33.399Z,100509.34
2022-12-25T20:54:35.660Z,100508.72
2022-12-25T20:57:38.106Z,100515.81
2022-12-25T21:00:41.973Z,100507.13
2022-12-25T21:03:44.787Z,100512.19
2022-12-25T21:06:46.946Z,100515.69
2022-12-25T21:09:49.100Z,100527.12
2022-12-25T21:12:51.312Z,100516.78
2022-12-25T21:15:53.383Z,100515.19
2022-12-25T21:18:55.638Z,100509.09
2022-12-25T21:21:57.757Z,100506.75
2022-12-25T21:24:59.875Z,100529.84
2022-12-25T21:28:02.008Z,100526.62
2022-12-25T21:31:05.353Z,100516.22
2022-12-25T21:34:07.461Z,100499.62
2022-12-25T21:37:09.583Z,100504.00
2022-12-25T21:40:16.389Z,100504.91
2022-12-25T21:43:19.628Z,100492.13
2022-12-25T21:46:21.960Z,100488.03
2022-12-25T21:49:42.719Z,100491.56
2022-12-25T21:52:44.766Z,100489.03
2022-12-25T21:56:02.084Z,100488.31
2022-12-25T21:59:06.912Z,100496.22
2022-12-25T22:02:11.715Z,100493.66
2022-12-25T22:05:34.044Z,100496.34
2022-12-25T22:08:36.307Z,100493.72
2022-12-25T22:11:57.213Z,100495.56
2022-12-25T22:15:09.812Z,100489.25
2022-12-25T22:18:30.880Z,100477.09
2022-12-25T22:21:33.092Z,100472.62
2022-12-25T22:24:35.371Z,100467.41
2022-12-25T22:27:39.362Z,100460.59
2022-12-25T22:30:44.465Z,100458.75
2022-12-25T22:33:46.661Z,100469.19
2022-12-25T22:36:51.435Z,100456.84
2022-12-25T22:39:53.609Z,100454.94
2022-12-25T22:42:56.627Z,100457.44
2022-12-25T22:46:00.677Z,100449.00
2022-12-25T22:49:02.922Z,100455.25
2022-12-25T22:52:05.338Z,100449.91
2022-12-25T22:55:09.027Z,100443.87
2022-12-25T22:58:11.128Z,100436.87
2022-12-25T23:01:14.131Z,100433.53
2022-12-25T23:04:17.333Z,100434.34
2022-12-25T23:07:19.421Z,100447.41
2022-12-25T23:10:21.910Z,100446.66
2022-12-25T23:13:42.558Z,100449.78
2022-12-25T23:16:44.650Z,100446.25
2022-12-25T23:20:05.697Z,100444.66
2022-12-25T23:23:32.786Z,100444.59
2022-12-25T23:26:34.906Z,100439.84
2022-12-25T23:29:37.722Z,100431.75
2022-12-25T23:32:40.576Z,100431.66
2022-12-25T23:35:42.628Z,100422.88
2022-12-25T23:38:44.785Z,100417.16
2022-12-25T23:41:46.874Z,100418.03
2022-12-25T23:44:49.114Z,100416.41
2022-12-25T23:47:51.253Z,100422.44
2022-12-25T23:50:53.489Z,100410.28
2022-12-25T23:53:57.687Z,100409.22
2022-12-25T23:57:01.047Z,100404.59
